sensor_id;sensor_type;location;lat;lon;timestamp;temperature;humidity
21085;DHT22;34247;50.064;19.970;2023-04-25T00:00:15;29.00;33.00
21085;DHT22;34247;50.064;19.970;2023-04-25T00:01:23;29.00;33.00
21085;DHT22;34247;50.064;19.970;2023-04-25T00:02:27;29.00;33.00
21085;DHT22;34247;50.064;19.970;2023-04-25T00:03:32;29.00;33.00
21085;DHT22;34247;50.064;19.970;2023-04-25T00:04:36;29.10;33.10
21085;DHT22;34247;50.064;19.970;2023-04-25T00:05:42;29.00;32.80
21085;DHT22;34247;50.064;19.970;2023-04-25T00:06:46;29.10;33.10
21085;DHT22;34247;50.064;19.970;2023-04-25T00:07:50;29.10;33.10
21085;DHT22;34247;50.064;19.970;2023-04-25T00:08:54;29.10;32.80
21085;DHT22;34247;50.064;19.970;2023-04-25T00:10:00;29.10;32.80
21085;DHT22;34247;50.064;19.970;2023-04-25T00:11:04;29.10;32.90
21085;DHT22;34247;50.064;19.970;2023-04-25T00:12:08;29.20;32.70
21085;DHT22;34247;50.064;19.970;2023-04-25T00:13:15;29.20;32.50
21085;DHT22;34247;50.064;19.970;2023-04-25T00:14:20;29.30;32.30
21085;DHT22;34247;50.064;19.970;2023-04-25T00:15:24;29.40;31.50
21085;DHT22;34247;50.064;19.970;2023-04-25T00:16:30;29.40;30.70
21085;DHT22;34247;50.064;19.970;2023-04-25T00:17:38;29.30;30.70
21085;DHT22;34247;50.064;19.970;2023-04-25T00:18:43;29.30;30.50
21085;DHT22;34247;50.064;19.970;2023-04-25T00:19:47;29.40;30.30
21085;DHT22;34247;50.064;19.970;2023-04-25T00:20:51;29.30;30.40
21085;DHT22;34247;50.064;19.970;2023-04-25T00:21:55;29.20;30.30
21085;DHT22;34247;50.064;19.970;2023-04-25T00:23:00;29.20;30.30
21085;DHT22;34247;50.064;19.970;2023-04-25T00:24:04;29.10;30.30
21085;DHT22;34247;50.064;19.970;2023-04-25T00:25:09;29.00;30.40
21085;DHT22;34247;50.064;19.970;2023-04-25T00:26:13;28.90;30.60
21085;DHT22;34247;50.064;19.970;2023-04-25T00:27:17;29.00;30.30
21085;DHT22;34247;50.064;19.970;2023-04-25T00:28:21;29.10;30.00
21085;DHT22;34247;50.064;19.970;2023-04-25T00:29:27;29.00;30.00
21085;DHT22;34247;50.064;19.970;2023-04-25T00:30:31;28.90;30.20
21085;DHT22;34247;50.064;19.970;2023-04-25T00:31:37;28.80;30.40
21085;DHT22;34247;50.064;19.970;2023-04-25T00:32:41;28.70;30.40
21085;DHT22;34247;50.064;19.970;2023-04-25T00:33:48;28.70;30.50
21085;DHT22;34247;50.064;19.970;2023-04-25T00:34:52;28.70;30.50
21085;DHT22;34247;50.064;19.970;2023-04-25T00:35:56;28.60;30.60
21085;DHT22;34247;50.064;19.970;2023-04-25T00:37:00;28.60;30.60
21085;DHT22;34247;50.064;19.970;2023-04-25T00:38:05;28.60;30.70
21085;DHT22;34247;50.064;19.970;2023-04-25T00:39:10;28.60;30.60
21085;DHT22;34247;50.064;19.970;2023-04-25T00:40:15;28.60;30.50
21085;DHT22;34247;50.064;19.970;2023-04-25T00:41:20;28.50;30.60
21085;DHT22;34247;50.064;19.970;2023-04-25T00:42:24;28.50;30.80
21085;DHT22;34247;50.064;19.970;2023-04-25T00:43:30;28.50;30.80
21085;DHT22;34247;50.064;19.970;2023-04-25T00:44:37;28.50;30.80
21085;DHT22;34247;50.064;19.970;2023-04-25T00:45:43;28.50;30.70
21085;DHT22;34247;50.064;19.970;2023-04-25T00:46:50;28.60;30.90
21085;DHT22;34247;50.064;19.970;2023-04-25T00:47:55;28.60;30.50
21085;DHT22;34247;50.064;19.970;2023-04-25T00:48:59;28.60;30.50
21085;DHT22;34247;50.064;19.970;2023-04-25T00:50:04;28.50;30.60
21085;DHT22;34247;50.064;19.970;2023-04-25T00:51:12;28.50;30.70
21085;DHT22;34247;50.064;19.970;2023-04-25T00:52:20;28.40;30.50
21085;DHT22;34247;50.064;19.970;2023-04-25T00:53:26;28.40;30.70
21085;DHT22;34247;50.064;19.970;2023-04-25T00:54:31;28.40;30.70
21085;DHT22;34247;50.064;19.970;2023-04-25T00:55:35;28.30;30.90
21085;DHT22;34247;50.064;19.970;2023-04-25T00:56:39;28.30;31.00
21085;DHT22;34247;50.064;19.970;2023-04-25T00:57:48;28.40;31.10
21085;DHT22;34247;50.064;19.970;2023-04-25T00:59:04;28.40;30.90
21085;DHT22;34247;50.064;19.970;2023-04-25T01:00:09;28.40;30.90
21085;DHT22;34247;50.064;19.970;2023-04-25T01:01:17;28.30;30.80
21085;DHT22;34247;50.064;19.970;2023-04-25T01:02:27;28.30;31.00
21085;DHT22;34247;50.064;19.970;2023-04-25T01:03:33;28.20;31.00
21085;DHT22;34247;50.064;19.970;2023-04-25T01:04:44;28.20;31.00
21085;DHT22;34247;50.064;19.970;2023-04-25T01:05:48;28.30;30.80
21085;DHT22;34247;50.064;19.970;2023-04-25T01:06:52;28.30;31.10
21085;DHT22;34247;50.064;19.970;2023-04-25T01:07:57;28.20;31.10
21085;DHT22;34247;50.064;19.970;2023-04-25T01:09:02;28.20;31.10
21085;DHT22;34247;50.064;19.970;2023-04-25T01:10:08;28.20;31.30
21085;DHT22;34247;50.064;19.970;2023-04-25T01:11:12;28.10;31.20
21085;DHT22;34247;50.064;19.970;2023-04-25T01:12:18;28.20;31.50
21085;DHT22;34247;50.064;19.970;2023-04-25T01:13:24;28.10;31.50
21085;DHT22;34247;50.064;19.970;2023-04-25T01:14:31;28.20;31.70
21085;DHT22;34247;50.064;19.970;2023-04-25T01:15:35;28.10;31.60
21085;DHT22;34247;50.064;19.970;2023-04-25T01:16:39;28.20;31.70
21085;DHT22;34247;50.064;19.970;2023-04-25T01:17:43;28.20;31.70
21085;DHT22;34247;50.064;19.970;2023-04-25T01:18:48;28.20;31.60
21085;DHT22;34247;50.064;19.970;2023-04-25T01:19:53;28.20;31.70
21085;DHT22;34247;50.064;19.970;2023-04-25T01:21:12;28.20;31.70
21085;DHT22;34247;50.064;19.970;2023-04-25T01:22:17;28.20;31.80
21085;DHT22;34247;50.064;19.970;2023-04-25T01:23:23;28.20;32.00
21085;DHT22;34247;50.064;19.970;2023-04-25T01:24:39;28.20;31.90
21085;DHT22;34247;50.064;19.970;2023-04-25T01:25:45;28.20;31.70
21085;DHT22;34247;50.064;19.970;2023-04-25T01:26:54;28.20;32.00
21085;DHT22;34247;50.064;19.970;2023-04-25T01:28:00;28.20;31.70
21085;DHT22;34247;50.064;19.970;2023-04-25T01:29:04;28.20;31.70
21085;DHT22;34247;50.064;19.970;2023-04-25T01:30:08;28.20;31.80
21085;DHT22;34247;50.064;19.970;2023-04-25T01:31:13;28.30;31.80
21085;DHT22;34247;50.064;19.970;2023-04-25T01:32:18;28.30;31.60
21085;DHT22;34247;50.064;19.970;2023-04-25T01:33:23;28.30;31.50
21085;DHT22;34247;50.064;19.970;2023-04-25T01:34:27;28.20;31.40
21085;DHT22;34247;50.064;19.970;2023-04-25T01:35:31;28.40;31.10
21085;DHT22;34247;50.064;19.970;2023-04-25T01:36:35;28.40;31.30
21085;DHT22;34247;50.064;19.970;2023-04-25T01:37:40;28.30;31.40
21085;DHT22;34247;50.064;19.970;2023-04-25T01:38:45;28.30;31.50
21085;DHT22;34247;50.064;19.970;2023-04-25T01:39:50;28.20;31.50
21085;DHT22;34247;50.064;19.970;2023-04-25T01:40:54;28.30;31.30
21085;DHT22;34247;50.064;19.970;2023-04-25T01:41:59;28.30;31.30
21085;DHT22;34247;50.064;19.970;2023-04-25T01:43:04;28.30;31.30
21085;DHT22;34247;50.064;19.970;2023-04-25T01:44:08;28.30;31.40
21085;DHT22;34247;50.064;19.970;2023-04-25T01:45:13;28.30;31.40
21085;DHT22;34247;50.064;19.970;2023-04-25T01:46:16;28.30;31.50
21085;DHT22;34247;50.064;19.970;2023-04-25T01:47:21;28.20;31.30
21085;DHT22;34247;50.064;19.970;2023-04-25T01:48:25;28.20;31.30
21085;DHT22;34247;50.064;19.970;2023-04-25T01:49:29;28.20;31.50
21085;DHT22;34247;50.064;19.970;2023-04-25T01:50:34;28.20;31.60
21085;DHT22;34247;50.064;19.970;2023-04-25T01:51:38;28.10;31.60
21085;DHT22;34247;50.064;19.970;2023-04-25T01:52:43;28.10;31.60
21085;DHT22;34247;50.064;19.970;2023-04-25T01:53:46;28.10;31.60
21085;DHT22;34247;50.064;19.970;2023-04-25T01:54:51;28.10;31.70
21085;DHT22;34247;50.064;19.970;2023-04-25T01:56:01;28.10;31.70
21085;DHT22;34247;50.064;19.970;2023-04-25T01:57:05;28.10;31.70
21085;DHT22;34247;50.064;19.970;2023-04-25T01:58:09;28.10;31.90
21085;DHT22;34247;50.064;19.970;2023-04-25T01:59:15;28.10;31.90
21085;DHT22;34247;50.064;19.970;2023-04-25T02:00:19;28.10;31.80
21085;DHT22;34247;50.064;19.970;2023-04-25T02:01:23;28.10;31.60
21085;DHT22;34247;50.064;19.970;2023-04-25T02:02:27;28.10;31.80
21085;DHT22;34247;50.064;19.970;2023-04-25T02:03:31;28.10;31.60
21085;DHT22;34247;50.064;19.970;2023-04-25T02:04:36;28.10;31.70
21085;DHT22;34247;50.064;19.970;2023-04-25T02:05:40;28.10;31.70
21085;DHT22;34247;50.064;19.970;2023-04-25T02:06:44;28.10;31.60
21085;DHT22;34247;50.064;19.970;2023-04-25T02:07:48;28.10;31.50
21085;DHT22;34247;50.064;19.970;2023-04-25T02:08:52;28.10;31.50
21085;DHT22;34247;50.064;19.970;2023-04-25T02:09:57;28.20;31.70
21085;DHT22;34247;50.064;19.970;2023-04-25T02:11:01;28.20;31.40
21085;DHT22;34247;50.064;19.970;2023-04-25T02:12:08;28.20;31.40
21085;DHT22;34247;50.064;19.970;2023-04-25T02:13:13;28.30;31.10
21085;DHT22;34247;50.064;19.970;2023-04-25T02:14:17;28.30;31.00
21085;DHT22;34247;50.064;19.970;2023-04-25T02:15:21;28.30;31.00
21085;DHT22;34247;50.064;19.970;2023-04-25T02:16:25;28.20;31.00
21085;DHT22;34247;50.064;19.970;2023-04-25T02:17:29;28.20;31.20
21085;DHT22;34247;50.064;19.970;2023-04-25T02:18:34;28.10;31.20
21085;DHT22;34247;50.064;19.970;2023-04-25T02:19:40;28.10;31.40
21085;DHT22;34247;50.064;19.970;2023-04-25T02:20:45;28.20;31.30
21085;DHT22;34247;50.064;19.970;2023-04-25T02:21:50;28.20;31.30
21085;DHT22;34247;50.064;19.970;2023-04-25T02:22:54;28.20;31.20
21085;DHT22;34247;50.064;19.970;2023-04-25T02:23:58;28.10;31.80
21085;DHT22;34247;50.064;19.970;2023-04-25T02:25:02;28.20;31.00
21085;DHT22;34247;50.064;19.970;2023-04-25T02:26:10;28.30;30.80
21085;DHT22;34247;50.064;19.970;2023-04-25T02:27:16;28.20;30.80
21085;DHT22;34247;50.064;19.970;2023-04-25T02:28:20;28.20;30.90
21085;DHT22;34247;50.064;19.970;2023-04-25T02:29:24;28.20;31.00
21085;DHT22;34247;50.064;19.970;2023-04-25T02:30:28;28.20;31.10
21085;DHT22;34247;50.064;19.970;2023-04-25T02:31:32;28.20;30.80
21085;DHT22;34247;50.064;19.970;2023-04-25T02:32:36;28.20;30.80
21085;DHT22;34247;50.064;19.970;2023-04-25T02:33:41;28.20;31.00
21085;DHT22;34247;50.064;19.970;2023-04-25T02:34:46;28.20;31.00
21085;DHT22;34247;50.064;19.970;2023-04-25T02:35:51;28.20;31.20
21085;DHT22;34247;50.064;19.970;2023-04-25T02:36:55;28.10;31.10
21085;DHT22;34247;50.064;19.970;2023-04-25T02:37:59;28.10;31.10
21085;DHT22;34247;50.064;19.970;2023-04-25T02:39:03;28.10;31.10
21085;DHT22;34247;50.064;19.970;2023-04-25T02:40:09;28.10;31.10
21085;DHT22;34247;50.064;19.970;2023-04-25T02:41:13;28.10;31.00
21085;DHT22;34247;50.064;19.970;2023-04-25T02:42:18;28.10;31.20
21085;DHT22;34247;50.064;19.970;2023-04-25T02:43:23;28.10;31.10
21085;DHT22;34247;50.064;19.970;2023-04-25T02:44:27;28.10;30.90
21085;DHT22;34247;50.064;19.970;2023-04-25T02:45:31;28.10;30.90
21085;DHT22;34247;50.064;19.970;2023-04-25T02:46:34;28.00;30.90
21085;DHT22;34247;50.064;19.970;2023-04-25T02:47:42;28.00;31.00
21085;DHT22;34247;50.064;19.970;2023-04-25T02:48:46;28.00;31.00
21085;DHT22;34247;50.064;19.970;2023-04-25T02:49:50;28.00;31.10
21085;DHT22;34247;50.064;19.970;2023-04-25T02:50:55;28.00;31.20
21085;DHT22;34247;50.064;19.970;2023-04-25T02:51:59;28.00;31.00
21085;DHT22;34247;50.064;19.970;2023-04-25T02:53:02;28.00;31.00
21085;DHT22;34247;50.064;19.970;2023-04-25T02:54:08;28.10;30.70
21085;DHT22;34247;50.064;19.970;2023-04-25T02:55:13;28.10;30.60
21085;DHT22;34247;50.064;19.970;2023-04-25T02:56:17;28.10;30.30
21085;DHT22;34247;50.064;19.970;2023-04-25T02:57:21;28.10;30.20
21085;DHT22;34247;50.064;19.970;2023-04-25T02:58:26;28.10;30.30
21085;DHT22;34247;50.064;19.970;2023-04-25T02:59:34;28.10;30.20
21085;DHT22;34247;50.064;19.970;2023-04-25T03:00:42;28.00;30.30
21085;DHT22;34247;50.064;19.970;2023-04-25T03:01:46;28.00;30.40
21085;DHT22;34247;50.064;19.970;2023-04-25T03:02:54;28.00;30.60
21085;DHT22;34247;50.064;19.970;2023-04-25T03:04:00;27.90;30.70
21085;DHT22;34247;50.064;19.970;2023-04-25T03:05:04;27.90;30.70
21085;DHT22;34247;50.064;19.970;2023-04-25T03:06:11;27.90;30.80
21085;DHT22;34247;50.064;19.970;2023-04-25T03:07:19;27.90;30.90
21085;DHT22;34247;50.064;19.970;2023-04-25T03:08:26;28.00;30.90
21085;DHT22;34247;50.064;19.970;2023-04-25T03:09:35;28.00;30.90
21085;DHT22;34247;50.064;19.970;2023-04-25T03:10:40;28.00;31.00
21085;DHT22;34247;50.064;19.970;2023-04-25T03:11:45;28.00;31.00
21085;DHT22;34247;50.064;19.970;2023-04-25T03:12:49;28.00;30.90
21085;DHT22;34247;50.064;19.970;2023-04-25T03:13:53;28.00;30.90
21085;DHT22;34247;50.064;19.970;2023-04-25T03:15:00;28.00;30.90
21085;DHT22;34247;50.064;19.970;2023-04-25T03:16:04;27.90;30.90
21085;DHT22;34247;50.064;19.970;2023-04-25T03:17:13;27.90;31.00
21085;DHT22;34247;50.064;19.970;2023-04-25T03:18:17;28.00;30.90
21085;DHT22;34247;50.064;19.970;2023-04-25T03:19:21;28.00;30.90
21085;DHT22;34247;50.064;19.970;2023-04-25T03:20:25;28.00;30.90
21085;DHT22;34247;50.064;19.970;2023-04-25T03:21:30;28.00;31.10
21085;DHT22;34247;50.064;19.970;2023-04-25T03:22:38;28.00;31.10
21085;DHT22;34247;50.064;19.970;2023-04-25T03:23:41;28.00;31.20
21085;DHT22;34247;50.064;19.970;2023-04-25T03:24:45;28.00;31.10
21085;DHT22;34247;50.064;19.970;2023-04-25T03:25:53;28.00;31.20
21085;DHT22;34247;50.064;19.970;2023-04-25T03:26:57;28.10;31.40
21085;DHT22;34247;50.064;19.970;2023-04-25T03:28:01;28.00;31.10
21085;DHT22;34247;50.064;19.970;2023-04-25T03:29:05;28.00;31.20
21085;DHT22;34247;50.064;19.970;2023-04-25T03:30:13;28.20;30.90
21085;DHT22;34247;50.064;19.970;2023-04-25T03:31:16;28.10;30.90
21085;DHT22;34247;50.064;19.970;2023-04-25T03:32:20;28.10;31.10
21085;DHT22;34247;50.064;19.970;2023-04-25T03:33:24;28.10;31.10
21085;DHT22;34247;50.064;19.970;2023-04-25T03:34:28;28.10;31.10
21085;DHT22;34247;50.064;19.970;2023-04-25T03:35:32;28.10;31.20
21085;DHT22;34247;50.064;19.970;2023-04-25T03:36:36;28.00;31.10
21085;DHT22;34247;50.064;19.970;2023-04-25T03:37:42;27.90;31.10
21085;DHT22;34247;50.064;19.970;2023-04-25T03:38:48;27.90;31.30
21085;DHT22;34247;50.064;19.970;2023-04-25T03:39:53;28.00;31.20
21085;DHT22;34247;50.064;19.970;2023-04-25T03:40:57;28.10;30.90
21085;DHT22;34247;50.064;19.970;2023-04-25T03:42:01;28.00;30.90
21085;DHT22;34247;50.064;19.970;2023-04-25T03:43:09;28.10;30.80
21085;DHT22;34247;50.064;19.970;2023-04-25T03:44:17;28.00;30.70
21085;DHT22;34247;50.064;19.970;2023-04-25T03:45:20;27.90;30.80
21085;DHT22;34247;50.064;19.970;2023-04-25T03:46:24;28.00;30.70
21085;DHT22;34247;50.064;19.970;2023-04-25T03:47:28;28.00;30.50
21085;DHT22;34247;50.064;19.970;2023-04-25T03:48:32;27.90;30.60
21085;DHT22;34247;50.064;19.970;2023-04-25T03:49:36;27.90;30.70
21085;DHT22;34247;50.064;19.970;2023-04-25T03:50:40;27.80;30.90
21085;DHT22;34247;50.064;19.970;2023-04-25T03:51:44;28.00;30.60
21085;DHT22;34247;50.064;19.970;2023-04-25T03:52:48;28.10;30.30
21085;DHT22;34247;50.064;19.970;2023-04-25T03:53:53;28.20;30.00
21085;DHT22;34247;50.064;19.970;2023-04-25T03:54:57;28.10;30.00
21085;DHT22;34247;50.064;19.970;2023-04-25T03:56:00;28.10;30.50
21085;DHT22;34247;50.064;19.970;2023-04-25T03:57:04;28.00;30.70
21085;DHT22;34247;50.064;19.970;2023-04-25T03:58:08;28.00;30.50
21085;DHT22;34247;50.064;19.970;2023-04-25T03:59:12;27.90;30.50
21085;DHT22;34247;50.064;19.970;2023-04-25T04:00:16;27.90;30.50
21085;DHT22;34247;50.064;19.970;2023-04-25T04:01:20;27.80;30.70
21085;DHT22;34247;50.064;19.970;2023-04-25T04:02:24;27.70;30.90
21085;DHT22;34247;50.064;19.970;2023-04-25T04:03:28;27.80;30.70
21085;DHT22;34247;50.064;19.970;2023-04-25T04:04:32;27.80;30.60
21085;DHT22;34247;50.064;19.970;2023-04-25T04:05:37;27.80;30.70
21085;DHT22;34247;50.064;19.970;2023-04-25T04:06:44;27.80;30.70
21085;DHT22;34247;50.064;19.970;2023-04-25T04:07:48;27.80;30.70
21085;DHT22;34247;50.064;19.970;2023-04-25T04:08:51;27.80;30.60
21085;DHT22;34247;50.064;19.970;2023-04-25T04:09:56;27.80;30.50
21085;DHT22;34247;50.064;19.970;2023-04-25T04:11:00;27.70;30.60
21085;DHT22;34247;50.064;19.970;2023-04-25T04:12:04;27.70;30.80
21085;DHT22;34247;50.064;19.970;2023-04-25T04:13:08;27.60;30.70
21085;DHT22;34247;50.064;19.970;2023-04-25T04:14:12;27.70;30.80
21085;DHT22;34247;50.064;19.970;2023-04-25T04:15:16;27.70;30.80
21085;DHT22;34247;50.064;19.970;2023-04-25T04:16:20;27.70;30.70
21085;DHT22;34247;50.064;19.970;2023-04-25T04:17:24;27.70;30.60
21085;DHT22;34247;50.064;19.970;2023-04-25T04:18:28;27.70;30.60
21085;DHT22;34247;50.064;19.970;2023-04-25T04:19:32;27.70;30.60
21085;DHT22;34247;50.064;19.970;2023-04-25T04:20:35;27.70;30.40
21085;DHT22;34247;50.064;19.970;2023-04-25T04:21:39;27.60;30.40
21085;DHT22;34247;50.064;19.970;2023-04-25T04:22:43;27.60;30.70
21085;DHT22;34247;50.064;19.970;2023-04-25T04:23:47;27.60;30.60
21085;DHT22;34247;50.064;19.970;2023-04-25T04:24:52;27.70;30.30
21085;DHT22;34247;50.064;19.970;2023-04-25T04:25:56;27.70;30.10
21085;DHT22;34247;50.064;19.970;2023-04-25T04:27:00;27.60;30.20
21085;DHT22;34247;50.064;19.970;2023-04-25T04:28:04;27.50;30.30
21085;DHT22;34247;50.064;19.970;2023-04-25T04:29:08;27.50;30.30
21085;DHT22;34247;50.064;19.970;2023-04-25T04:30:12;27.50;30.40
21085;DHT22;34247;50.064;19.970;2023-04-25T04:31:16;27.50;30.50
21085;DHT22;34247;50.064;19.970;2023-04-25T04:32:23;27.40;30.40
21085;DHT22;34247;50.064;19.970;2023-04-25T04:33:27;27.40;30.40
21085;DHT22;34247;50.064;19.970;2023-04-25T04:34:31;27.30;30.50
21085;DHT22;34247;50.064;19.970;2023-04-25T04:35:35;27.40;30.00
21085;DHT22;34247;50.064;19.970;2023-04-25T04:36:38;27.50;30.00
21085;DHT22;34247;50.064;19.970;2023-04-25T04:37:43;27.30;30.00
21085;DHT22;34247;50.064;19.970;2023-04-25T04:38:49;27.30;30.20
21085;DHT22;34247;50.064;19.970;2023-04-25T04:39:53;27.30;30.00
21085;DHT22;34247;50.064;19.970;2023-04-25T04:40:56;27.30;30.10
21085;DHT22;34247;50.064;19.970;2023-04-25T04:42:00;27.50;29.90
21085;DHT22;34247;50.064;19.970;2023-04-25T04:43:12;27.60;29.70
21085;DHT22;34247;50.064;19.970;2023-04-25T04:44:17;27.50;30.30
21085;DHT22;34247;50.064;19.970;2023-04-25T04:45:21;27.40;30.00
21085;DHT22;34247;50.064;19.970;2023-04-25T04:46:25;27.40;29.90
21085;DHT22;34247;50.064;19.970;2023-04-25T04:47:31;27.50;29.80
21085;DHT22;34247;50.064;19.970;2023-04-25T04:48:37;27.40;29.80
21085;DHT22;34247;50.064;19.970;2023-04-25T04:49:43;27.40;29.90
21085;DHT22;34247;50.064;19.970;2023-04-25T04:50:48;27.20;30.00
21085;DHT22;34247;50.064;19.970;2023-04-25T04:51:53;27.20;30.10
21085;DHT22;34247;50.064;19.970;2023-04-25T04:53:02;27.10;30.30
21085;DHT22;34247;50.064;19.970;2023-04-25T04:54:10;27.20;30.30
21085;DHT22;34247;50.064;19.970;2023-04-25T04:55:14;27.20;30.20
21085;DHT22;34247;50.064;19.970;2023-04-25T04:56:18;27.20;30.30
21085;DHT22;34247;50.064;19.970;2023-04-25T04:57:24;27.10;30.40
21085;DHT22;34247;50.064;19.970;2023-04-25T04:58:28;27.00;30.50
21085;DHT22;34247;50.064;19.970;2023-04-25T04:59:33;27.00;30.80
21085;DHT22;34247;50.064;19.970;2023-04-25T05:00:37;27.10;30.90
21085;DHT22;34247;50.064;19.970;2023-04-25T05:01:41;27.00;30.90
21085;DHT22;34247;50.064;19.970;2023-04-25T05:02:45;27.10;31.00
21085;DHT22;34247;50.064;19.970;2023-04-25T05:03:49;27.10;31.00
21085;DHT22;34247;50.064;19.970;2023-04-25T05:04:55;27.30;30.90
21085;DHT22;34247;50.064;19.970;2023-04-25T05:06:00;27.30;30.60
21085;DHT22;34247;50.064;19.970;2023-04-25T05:07:04;27.30;30.40
21085;DHT22;34247;50.064;19.970;2023-04-25T05:08:08;27.40;30.20
21085;DHT22;34247;50.064;19.970;2023-04-25T05:09:12;27.30;30.30
21085;DHT22;34247;50.064;19.970;2023-04-25T05:10:18;27.30;30.50
21085;DHT22;34247;50.064;19.970;2023-04-25T05:11:23;27.20;30.20
21085;DHT22;34247;50.064;19.970;2023-04-25T05:12:28;27.20;30.80
21085;DHT22;34247;50.064;19.970;2023-04-25T05:13:33;27.20;30.80
21085;DHT22;34247;50.064;19.970;2023-04-25T05:14:37;27.20;30.70
21085;DHT22;34247;50.064;19.970;2023-04-25T05:15:41;27.30;30.50
21085;DHT22;34247;50.064;19.970;2023-04-25T05:16:45;27.30;30.50
21085;DHT22;34247;50.064;19.970;2023-04-25T05:17:49;27.30;30.60
21085;DHT22;34247;50.064;19.970;2023-04-25T05:18:53;27.30;30.50
21085;DHT22;34247;50.064;19.970;2023-04-25T05:19:58;27.30;30.10
21085;DHT22;34247;50.064;19.970;2023-04-25T05:21:01;27.40;30.10
21085;DHT22;34247;50.064;19.970;2023-04-25T05:22:09;27.40;30.00
21085;DHT22;34247;50.064;19.970;2023-04-25T05:23:13;27.30;30.10
21085;DHT22;34247;50.064;19.970;2023-04-25T05:24:17;27.30;30.10
21085;DHT22;34247;50.064;19.970;2023-04-25T05:25:21;27.30;29.90
21085;DHT22;34247;50.064;19.970;2023-04-25T05:26:25;27.30;29.70
21085;DHT22;34247;50.064;19.970;2023-04-25T05:27:29;27.40;29.70
21085;DHT22;34247;50.064;19.970;2023-04-25T05:28:33;27.40;29.40
21085;DHT22;34247;50.064;19.970;2023-04-25T05:29:37;27.30;29.60
21085;DHT22;34247;50.064;19.970;2023-04-25T05:30:41;27.20;29.70
21085;DHT22;34247;50.064;19.970;2023-04-25T05:31:47;27.20;29.80
21085;DHT22;34247;50.064;19.970;2023-04-25T05:32:51;27.20;29.90
21085;DHT22;34247;50.064;19.970;2023-04-25T05:33:55;27.20;29.40
21085;DHT22;34247;50.064;19.970;2023-04-25T05:35:00;27.30;29.30
21085;DHT22;34247;50.064;19.970;2023-04-25T05:36:06;27.30;29.10
21085;DHT22;34247;50.064;19.970;2023-04-25T05:37:11;27.30;29.10
21085;DHT22;34247;50.064;19.970;2023-04-25T05:38:15;27.40;29.00
21085;DHT22;34247;50.064;19.970;2023-04-25T05:39:18;27.40;28.50
21085;DHT22;34247;50.064;19.970;2023-04-25T05:40:23;27.50;28.10
21085;DHT22;34247;50.064;19.970;2023-04-25T05:41:30;27.30;28.30
21085;DHT22;34247;50.064;19.970;2023-04-25T05:42:34;27.20;28.60
21085;DHT22;34247;50.064;19.970;2023-04-25T05:43:37;27.20;28.90
21085;DHT22;34247;50.064;19.970;2023-04-25T05:44:41;27.10;29.50
21085;DHT22;34247;50.064;19.970;2023-04-25T05:45:45;27.20;28.80
21085;DHT22;34247;50.064;19.970;2023-04-25T05:46:50;27.10;28.90
21085;DHT22;34247;50.064;19.970;2023-04-25T05:47:54;27.10;28.80
21085;DHT22;34247;50.064;19.970;2023-04-25T05:48:58;27.10;29.30
21085;DHT22;34247;50.064;19.970;2023-04-25T05:50:07;27.10;28.90
21085;DHT22;34247;50.064;19.970;2023-04-25T05:51:12;27.10;28.70
21085;DHT22;34247;50.064;19.970;2023-04-25T05:52:16;27.10;28.70
21085;DHT22;34247;50.064;19.970;2023-04-25T05:53:20;27.20;28.40
21085;DHT22;34247;50.064;19.970;2023-04-25T05:54:25;27.20;28.40
21085;DHT22;34247;50.064;19.970;2023-04-25T05:55:29;27.10;28.50
21085;DHT22;34247;50.064;19.970;2023-04-25T05:56:33;27.10;28.70
21085;DHT22;34247;50.064;19.970;2023-04-25T05:57:37;27.00;28.60
21085;DHT22;34247;50.064;19.970;2023-04-25T05:58:44;27.00;28.70
21085;DHT22;34247;50.064;19.970;2023-04-25T05:59:48;27.00;28.70
21085;DHT22;34247;50.064;19.970;2023-04-25T06:00:56;27.20;28.30
21085;DHT22;34247;50.064;19.970;2023-04-25T06:02:00;27.10;28.40
21085;DHT22;34247;50.064;19.970;2023-04-25T06:03:05;27.00;28.50
21085;DHT22;34247;50.064;19.970;2023-04-25T06:04:21;27.00;28.60
21085;DHT22;34247;50.064;19.970;2023-04-25T06:05:26;27.00;28.90
21085;DHT22;34247;50.064;19.970;2023-04-25T06:06:30;27.00;28.50
21085;DHT22;34247;50.064;19.970;2023-04-25T06:07:35;27.00;28.40
21085;DHT22;34247;50.064;19.970;2023-04-25T06:08:38;27.10;28.30
21085;DHT22;34247;50.064;19.970;2023-04-25T06:09:43;27.00;28.40
21085;DHT22;34247;50.064;19.970;2023-04-25T06:10:48;27.00;28.60
21085;DHT22;34247;50.064;19.970;2023-04-25T06:11:59;27.00;28.70
21085;DHT22;34247;50.064;19.970;2023-04-25T06:13:04;26.90;28.80
21085;DHT22;34247;50.064;19.970;2023-04-25T06:14:08;26.90;28.90
21085;DHT22;34247;50.064;19.970;2023-04-25T06:15:12;26.80;28.90
21085;DHT22;34247;50.064;19.970;2023-04-25T06:16:31;26.80;29.10
21085;DHT22;34247;50.064;19.970;2023-04-25T06:17:35;26.70;29.20
21085;DHT22;34247;50.064;19.970;2023-04-25T06:18:39;26.80;29.30
21085;DHT22;34247;50.064;19.970;2023-04-25T06:19:43;26.70;29.20
21085;DHT22;34247;50.064;19.970;2023-04-25T06:20:47;26.80;29.10
21085;DHT22;34247;50.064;19.970;2023-04-25T06:21:52;26.70;29.10
21085;DHT22;34247;50.064;19.970;2023-04-25T06:22:56;26.80;29.30
21085;DHT22;34247;50.064;19.970;2023-04-25T06:24:00;26.70;29.20
21085;DHT22;34247;50.064;19.970;2023-04-25T06:25:05;26.70;29.20
21085;DHT22;34247;50.064;19.970;2023-04-25T06:26:10;26.70;29.20
21085;DHT22;34247;50.064;19.970;2023-04-25T06:27:18;26.80;28.80
21085;DHT22;34247;50.064;19.970;2023-04-25T06:28:23;26.80;28.90
21085;DHT22;34247;50.064;19.970;2023-04-25T06:29:30;26.70;29.00
21085;DHT22;34247;50.064;19.970;2023-04-25T06:30:34;26.90;28.60
21085;DHT22;34247;50.064;19.970;2023-04-25T06:31:38;26.80;28.90
21085;DHT22;34247;50.064;19.970;2023-04-25T06:32:42;26.70;29.00
21085;DHT22;34247;50.064;19.970;2023-04-25T06:33:46;26.70;29.10
21085;DHT22;34247;50.064;19.970;2023-04-25T06:34:53;26.90;28.80
21085;DHT22;34247;50.064;19.970;2023-04-25T06:35:57;26.90;28.50
21085;DHT22;34247;50.064;19.970;2023-04-25T06:37:02;26.80;28.80
21085;DHT22;34247;50.064;19.970;2023-04-25T06:38:06;26.90;28.90
21085;DHT22;34247;50.064;19.970;2023-04-25T06:39:11;26.90;28.90
21085;DHT22;34247;50.064;19.970;2023-04-25T06:40:16;26.80;28.90
21085;DHT22;34247;50.064;19.970;2023-04-25T06:41:21;26.80;29.00
21085;DHT22;34247;50.064;19.970;2023-04-25T06:42:24;26.90;29.00
21085;DHT22;34247;50.064;19.970;2023-04-25T06:43:31;26.90;29.10